sensor_id;sensor_type;location;lat;lon;timestamp;temperature;humidity
4840;DHT22;2434;48.486;7.964;2023-03-20T00:02:19;10.70;73.20
4840;DHT22;2434;48.486;7.964;2023-03-20T00:04:47;10.70;73.30
4840;DHT22;2434;48.486;7.964;2023-03-20T00:07:16;10.70;73.00
4840;DHT22;2434;48.486;7.964;2023-03-20T00:09:44;10.70;73.00
4840;DHT22;2434;48.486;7.964;2023-03-20T00:12:14;10.70;73.20
4840;DHT22;2434;48.486;7.964;2023-03-20T00:14:44;10.60;72.80
4840;DHT22;2434;48.486;7.964;2023-03-20T00:17:16;10.70;73.30
4840;DHT22;2434;48.486;7.964;2023-03-20T00:19:48;10.70;73.10
4840;DHT22;2434;48.486;7.964;2023-03-20T00:22:16;10.70;73.00
4840;DHT22;2434;48.486;7.964;2023-03-20T00:24:44;10.70;73.00
4840;DHT22;2434;48.486;7.964;2023-03-20T00:27:15;10.70;73.20
4840;DHT22;2434;48.486;7.964;2023-03-20T00:29:43;10.70;73.10
4840;DHT22;2434;48.486;7.964;2023-03-20T00:32:12;10.70;72.80
4840;DHT22;2434;48.486;7.964;2023-03-20T00:34:41;10.70;72.90
4840;DHT22;2434;48.486;7.964;2023-03-20T00:37:13;10.70;72.50
4840;DHT22;2434;48.486;7.964;2023-03-20T00:39:41;10.70;72.50
4840;DHT22;2434;48.486;7.964;2023-03-20T00:42:18;10.70;72.80
4840;DHT22;2434;48.486;7.964;2023-03-20T00:44:49;10.70;72.60
4840;DHT22;2434;48.486;7.964;2023-03-20T00:47:23;10.70;72.30
4840;DHT22;2434;48.486;7.964;2023-03-20T00:49:53;10.80;72.60
4840;DHT22;2434;48.486;7.964;2023-03-20T00:52:25;10.80;72.70
4840;DHT22;2434;48.486;7.964;2023-03-20T00:54:53;10.80;72.90
4840;DHT22;2434;48.486;7.964;2023-03-20T00:57:23;10.80;71.80
4840;DHT22;2434;48.486;7.964;2023-03-20T00:59:54;10.80;71.70
4840;DHT22;2434;48.486;7.964;2023-03-20T01:02:26;10.80;72.40
4840;DHT22;2434;48.486;7.964;2023-03-20T01:04:55;10.80;71.70
4840;DHT22;2434;48.486;7.964;2023-03-20T01:07:26;10.70;71.70
4840;DHT22;2434;48.486;7.964;2023-03-20T01:09:54;10.80;72.60
4840;DHT22;2434;48.486;7.964;2023-03-20T01:12:22;10.70;71.70
4840;DHT22;2434;48.486;7.964;2023-03-20T01:14:53;10.80;71.50
4840;DHT22;2434;48.486;7.964;2023-03-20T01:17:24;10.80;71.60
4840;DHT22;2434;48.486;7.964;2023-03-20T01:19:52;10.80;71.30
4840;DHT22;2434;48.486;7.964;2023-03-20T01:22:20;10.80;71.30
4840;DHT22;2434;48.486;7.964;2023-03-20T01:24:50;10.80;71.00
4840;DHT22;2434;48.486;7.964;2023-03-20T01:27:19;10.70;71.00
4840;DHT22;2434;48.486;7.964;2023-03-20T01:29:47;10.70;71.10
4840;DHT22;2434;48.486;7.964;2023-03-20T01:32:18;10.70;71.60
4840;DHT22;2434;48.486;7.964;2023-03-20T01:34:48;10.70;71.70
4840;DHT22;2434;48.486;7.964;2023-03-20T01:37:22;10.70;71.50
4840;DHT22;2434;48.486;7.964;2023-03-20T01:39:55;10.70;71.50
4840;DHT22;2434;48.486;7.964;2023-03-20T01:42:24;10.70;71.40
4840;DHT22;2434;48.486;7.964;2023-03-20T01:44:53;10.70;71.40
4840;DHT22;2434;48.486;7.964;2023-03-20T01:47:22;10.60;71.00
4840;DHT22;2434;48.486;7.964;2023-03-20T01:50:18;10.60;71.50
4840;DHT22;2434;48.486;7.964;2023-03-20T01:52:55;10.60;71.10
4840;DHT22;2434;48.486;7.964;2023-03-20T01:55:25;10.70;71.20
4840;DHT22;2434;48.486;7.964;2023-03-20T01:58:00;10.70;71.00
4840;DHT22;2434;48.486;7.964;2023-03-20T02:00:34;10.70;70.90
4840;DHT22;2434;48.486;7.964;2023-03-20T02:03:06;10.70;70.70
4840;DHT22;2434;48.486;7.964;2023-03-20T02:06:01;10.70;71.10
4840;DHT22;2434;48.486;7.964;2023-03-20T02:08:50;10.70;71.10
4840;DHT22;2434;48.486;7.964;2023-03-20T02:11:23;10.80;70.50
4840;DHT22;2434;48.486;7.964;2023-03-20T02:13:54;10.80;70.60
4840;DHT22;2434;48.486;7.964;2023-03-20T02:16:27;10.80;70.90
4840;DHT22;2434;48.486;7.964;2023-03-20T02:19:09;10.90;71.00
4840;DHT22;2434;48.486;7.964;2023-03-20T02:22:23;10.80;70.50
4840;DHT22;2434;48.486;7.964;2023-03-20T02:34:37;10.90;70.20
4840;DHT22;2434;48.486;7.964;2023-03-20T02:37:39;10.90;70.30
4840;DHT22;2434;48.486;7.964;2023-03-20T02:40:20;10.90;71.00
4840;DHT22;2434;48.486;7.964;2023-03-20T02:42:57;10.90;70.60
4840;DHT22;2434;48.486;7.964;2023-03-20T02:45:35;10.90;70.90
4840;DHT22;2434;48.486;7.964;2023-03-20T02:48:16;10.90;70.50
4840;DHT22;2434;48.486;7.964;2023-03-20T02:50:49;10.90;70.70
4840;DHT22;2434;48.486;7.964;2023-03-20T02:53:30;10.90;70.00
4840;DHT22;2434;48.486;7.964;2023-03-20T02:56:08;10.80;71.10
4840;DHT22;2434;48.486;7.964;2023-03-20T02:58:43;10.80;70.90
4840;DHT22;2434;48.486;7.964;2023-03-20T03:01:16;10.80;70.90
4840;DHT22;2434;48.486;7.964;2023-03-20T03:03:50;10.90;71.60
4840;DHT22;2434;48.486;7.964;2023-03-20T03:06:26;10.90;71.60
4840;DHT22;2434;48.486;7.964;2023-03-20T03:09:00;10.90;71.20
4840;DHT22;2434;48.486;7.964;2023-03-20T03:11:32;10.90;71.20
4840;DHT22;2434;48.486;7.964;2023-03-20T03:14:01;10.90;71.30
4840;DHT22;2434;48.486;7.964;2023-03-20T03:16:34;10.90;71.20
4840;DHT22;2434;48.486;7.964;2023-03-20T03:19:08;10.80;71.20
4840;DHT22;2434;48.486;7.964;2023-03-20T03:21:39;10.80;71.20
4840;DHT22;2434;48.486;7.964;2023-03-20T03:24:23;10.80;71.20
4840;DHT22;2434;48.486;7.964;2023-03-20T03:27:14;10.70;71.70
4840;DHT22;2434;48.486;7.964;2023-03-20T03:29:49;10.80;71.40
4840;DHT22;2434;48.486;7.964;2023-03-20T03:32:26;10.80;71.30
4840;DHT22;2434;48.486;7.964;2023-03-20T03:34:57;10.70;71.80
4840;DHT22;2434;48.486;7.964;2023-03-20T03:37:41;10.70;72.00
4840;DHT22;2434;48.486;7.964;2023-03-20T03:40:18;10.70;72.30
4840;DHT22;2434;48.486;7.964;2023-03-20T03:42:52;10.70;72.60
4840;DHT22;2434;48.486;7.964;2023-03-20T03:45:28;10.60;72.70
4840;DHT22;2434;48.486;7.964;2023-03-20T03:48:01;10.60;72.60
4840;DHT22;2434;48.486;7.964;2023-03-20T03:50:35;10.60;72.60
4840;DHT22;2434;48.486;7.964;2023-03-20T03:53:09;10.60;72.30
4840;DHT22;2434;48.486;7.964;2023-03-20T03:55:43;10.60;72.40
4840;DHT22;2434;48.486;7.964;2023-03-20T03:58:15;10.60;72.50
4840;DHT22;2434;48.486;7.964;2023-03-20T04:00:45;10.60;72.50
4840;DHT22;2434;48.486;7.964;2023-03-20T04:03:16;10.70;72.30
4840;DHT22;2434;48.486;7.964;2023-03-20T04:05:46;10.70;72.00
4840;DHT22;2434;48.486;7.964;2023-03-20T04:08:14;10.70;72.20
4840;DHT22;2434;48.486;7.964;2023-03-20T04:10:44;10.70;72.20
4840;DHT22;2434;48.486;7.964;2023-03-20T04:13:13;10.70;72.30
4840;DHT22;2434;48.486;7.964;2023-03-20T04:15:43;10.70;72.50
4840;DHT22;2434;48.486;7.964;2023-03-20T04:18:14;10.70;72.20
4840;DHT22;2434;48.486;7.964;2023-03-20T04:20:45;10.70;72.10
4840;DHT22;2434;48.486;7.964;2023-03-20T04:23:15;10.70;72.20
4840;DHT22;2434;48.486;7.964;2023-03-20T04:25:45;10.70;72.30
4840;DHT22;2434;48.486;7.964;2023-03-20T04:28:13;10.70;72.10
4840;DHT22;2434;48.486;7.964;2023-03-20T04:31:03;10.70;72.00
4840;DHT22;2434;48.486;7.964;2023-03-20T04:33:45;10.70;72.40
4840;DHT22;2434;48.486;7.964;2023-03-20T04:36:13;10.70;71.90
4840;DHT22;2434;48.486;7.964;2023-03-20T04:38:42;10.80;71.40
4840;DHT22;2434;48.486;7.964;2023-03-20T04:41:11;10.70;72.00
4840;DHT22;2434;48.486;7.964;2023-03-20T04:43:40;10.70;72.30
4840;DHT22;2434;48.486;7.964;2023-03-20T04:46:08;10.70;71.90
4840;DHT22;2434;48.486;7.964;2023-03-20T04:48:36;10.60;73.80
4840;DHT22;2434;48.486;7.964;2023-03-20T04:51:05;10.60;72.70
4840;DHT22;2434;48.486;7.964;2023-03-20T04:53:52;10.70;72.40
4840;DHT22;2434;48.486;7.964;2023-03-20T04:56:21;10.70;72.10
4840;DHT22;2434;48.486;7.964;2023-03-20T04:58:51;10.70;72.10
4840;DHT22;2434;48.486;7.964;2023-03-20T05:01:21;10.70;72.40
4840;DHT22;2434;48.486;7.964;2023-03-20T05:03:49;10.60;72.00
4840;DHT22;2434;48.486;7.964;2023-03-20T05:06:18;10.70;72.20
4840;DHT22;2434;48.486;7.964;2023-03-20T05:08:47;10.70;72.30
4840;DHT22;2434;48.486;7.964;2023-03-20T05:11:17;10.70;71.60
4840;DHT22;2434;48.486;7.964;2023-03-20T05:13:56;10.70;71.40
4840;DHT22;2434;48.486;7.964;2023-03-20T05:16:35;10.70;71.20
4840;DHT22;2434;48.486;7.964;2023-03-20T05:19:22;10.70;71.00
4840;DHT22;2434;48.486;7.964;2023-03-20T05:21:53;10.60;70.90
4840;DHT22;2434;48.486;7.964;2023-03-20T05:24:45;10.60;70.90
4840;DHT22;2434;48.486;7.964;2023-03-20T05:27:32;10.60;71.00
4840;DHT22;2434;48.486;7.964;2023-03-20T05:30:25;10.50;71.90
4840;DHT22;2434;48.486;7.964;2023-03-20T05:33:03;10.50;71.90
4840;DHT22;2434;48.486;7.964;2023-03-20T05:35:59;10.40;72.30
4840;DHT22;2434;48.486;7.964;2023-03-20T05:38:46;10.30;72.70
4840;DHT22;2434;48.486;7.964;2023-03-20T05:41:43;10.30;72.90
4840;DHT22;2434;48.486;7.964;2023-03-20T05:44:50;10.20;72.60
4840;DHT22;2434;48.486;7.964;2023-03-20T05:47:38;10.20;72.60
4840;DHT22;2434;48.486;7.964;2023-03-20T05:50:32;10.20;72.70
4840;DHT22;2434;48.486;7.964;2023-03-20T05:53:23;10.20;72.80
4840;DHT22;2434;48.486;7.964;2023-03-20T05:56:10;10.20;72.80
4840;DHT22;2434;48.486;7.964;2023-03-20T05:58:38;10.10;73.30
4840;DHT22;2434;48.486;7.964;2023-03-20T06:01:14;10.20;72.20
4840;DHT22;2434;48.486;7.964;2023-03-20T06:03:57;10.20;72.50
4840;DHT22;2434;48.486;7.964;2023-03-20T06:06:55;10.30;73.00
4840;DHT22;2434;48.486;7.964;2023-03-20T06:09:23;10.30;72.80
4840;DHT22;2434;48.486;7.964;2023-03-20T06:11:52;10.20;72.00
4840;DHT22;2434;48.486;7.964;2023-03-20T06:14:21;10.20;72.00
4840;DHT22;2434;48.486;7.964;2023-03-20T06:16:55;10.30;71.80
4840;DHT22;2434;48.486;7.964;2023-03-20T06:19:26;10.30;71.70
4840;DHT22;2434;48.486;7.964;2023-03-20T06:21:55;10.30;71.30
4840;DHT22;2434;48.486;7.964;2023-03-20T06:24:23;10.40;71.80
4840;DHT22;2434;48.486;7.964;2023-03-20T06:26:52;10.40;71.60
4840;DHT22;2434;48.486;7.964;2023-03-20T06:29:20;10.40;70.60
4840;DHT22;2434;48.486;7.964;2023-03-20T06:31:51;10.40;70.20
4840;DHT22;2434;48.486;7.964;2023-03-20T06:34:28;10.40;70.20
4840;DHT22;2434;48.486;7.964;2023-03-20T06:36:57;10.40;69.90
4840;DHT22;2434;48.486;7.964;2023-03-20T06:39:25;10.50;69.70
4840;DHT22;2434;48.486;7.964;2023-03-20T06:41:55;10.50;69.30
4840;DHT22;2434;48.486;7.964;2023-03-20T06:44:24;10.50;69.20
4840;DHT22;2434;48.486;7.964;2023-03-20T06:47:29;10.40;69.10
4840;DHT22;2434;48.486;7.964;2023-03-20T06:49:59;10.40;69.90
4840;DHT22;2434;48.486;7.964;2023-03-20T06:52:30;10.50;69.20
4840;DHT22;2434;48.486;7.964;2023-03-20T06:55:29;10.50;69.10
4840;DHT22;2434;48.486;7.964;2023-03-20T06:57:58;10.50;69.10
4840;DHT22;2434;48.486;7.964;2023-03-20T07:00:28;10.40;68.90
4840;DHT22;2434;48.486;7.964;2023-03-20T07:03:01;10.50;68.90
4840;DHT22;2434;48.486;7.964;2023-03-20T07:05:31;10.50;68.40
4840;DHT22;2434;48.486;7.964;2023-03-20T07:08:03;10.60;68.90
4840;DHT22;2434;48.486;7.964;2023-03-20T07:10:31;10.60;69.30
4840;DHT22;2434;48.486;7.964;2023-03-20T07:13:00;10.50;68.50
4840;DHT22;2434;48.486;7.964;2023-03-20T07:15:28;10.50;68.80
4840;DHT22;2434;48.486;7.964;2023-03-20T07:17:58;10.60;68.80
4840;DHT22;2434;48.486;7.964;2023-03-20T07:20:27;10.60;67.70
4840;DHT22;2434;48.486;7.964;2023-03-20T07:22:57;10.60;67.70
4840;DHT22;2434;48.486;7.964;2023-03-20T07:25:27;10.60;67.60
4840;DHT22;2434;48.486;7.964;2023-03-20T07:28:10;10.70;67.80
4840;DHT22;2434;48.486;7.964;2023-03-20T07:30:42;10.60;67.80
4840;DHT22;2434;48.486;7.964;2023-03-20T07:33:15;10.60;68.60
4840;DHT22;2434;48.486;7.964;2023-03-20T07:35:45;10.60;67.70
4840;DHT22;2434;48.486;7.964;2023-03-20T07:38:14;10.60;69.10
4840;DHT22;2434;48.486;7.964;2023-03-20T07:40:54;10.60;68.10
4840;DHT22;2434;48.486;7.964;2023-03-20T07:43:22;10.60;67.50
4840;DHT22;2434;48.486;7.964;2023-03-20T07:46:09;10.60;67.90
4840;DHT22;2434;48.486;7.964;2023-03-20T07:48:37;10.60;67.80
4840;DHT22;2434;48.486;7.964;2023-03-20T07:51:06;10.50;68.00
4840;DHT22;2434;48.486;7.964;2023-03-20T07:53:36;10.50;67.10
4840;DHT22;2434;48.486;7.964;2023-03-20T07:56:06;10.40;67.40
4840;DHT22;2434;48.486;7.964;2023-03-20T07:58:35;10.30;67.10
4840;DHT22;2434;48.486;7.964;2023-03-20T08:01:03;10.40;67.20
4840;DHT22;2434;48.486;7.964;2023-03-20T08:03:31;10.40;65.90
4840;DHT22;2434;48.486;7.964;2023-03-20T08:06:00;10.40;66.10
4840;DHT22;2434;48.486;7.964;2023-03-20T08:08:30;10.50;66.10
4840;DHT22;2434;48.486;7.964;2023-03-20T08:11:00;10.50;67.10
4840;DHT22;2434;48.486;7.964;2023-03-20T08:13:28;10.50;66.70
4840;DHT22;2434;48.486;7.964;2023-03-20T08:15:56;10.60;65.90
4840;DHT22;2434;48.486;7.964;2023-03-20T08:18:24;10.70;65.40
4840;DHT22;2434;48.486;7.964;2023-03-20T08:20:53;10.60;64.30
4840;DHT22;2434;48.486;7.964;2023-03-20T08:23:21;10.60;64.30
4840;DHT22;2434;48.486;7.964;2023-03-20T08:25:49;10.60;64.70
4840;DHT22;2434;48.486;7.964;2023-03-20T08:28:20;10.70;64.80
4840;DHT22;2434;48.486;7.964;2023-03-20T08:31:07;10.80;62.60
4840;DHT22;2434;48.486;7.964;2023-03-20T08:33:35;10.90;64.30
4840;DHT22;2434;48.486;7.964;2023-03-20T08:36:04;10.80;63.00
4840;DHT22;2434;48.486;7.964;2023-03-20T08:38:33;10.70;61.20
4840;DHT22;2434;48.486;7.964;2023-03-20T08:41:01;10.80;62.40
4840;DHT22;2434;48.486;7.964;2023-03-20T08:43:31;11.00;63.60
4840;DHT22;2434;48.486;7.964;2023-03-20T08:45:59;11.00;61.00
4840;DHT22;2434;48.486;7.964;2023-03-20T08:48:28;10.90;60.20
4840;DHT22;2434;48.486;7.964;2023-03-20T08:50:56;11.00;61.00
4840;DHT22;2434;48.486;7.964;2023-03-20T08:53:24;11.10;60.60
4840;DHT22;2434;48.486;7.964;2023-03-20T08:55:53;11.20;60.40
4840;DHT22;2434;48.486;7.964;2023-03-20T08:58:22;11.10;60.50
4840;DHT22;2434;48.486;7.964;2023-03-20T09:00:52;11.10;61.50
4840;DHT22;2434;48.486;7.964;2023-03-20T09:03:20;11.30;61.90
4840;DHT22;2434;48.486;7.964;2023-03-20T09:05:50;11.20;59.70
4840;DHT22;2434;48.486;7.964;2023-03-20T09:08:18;11.20;61.00
4840;DHT22;2434;48.486;7.964;2023-03-20T09:10:47;11.30;62.30
4840;DHT22;2434;48.486;7.964;2023-03-20T09:13:19;11.50;61.00
4840;DHT22;2434;48.486;7.964;2023-03-20T09:15:55;11.70;59.60
4840;DHT22;2434;48.486;7.964;2023-03-20T09:18:24;11.60;56.80
4840;DHT22;2434;48.486;7.964;2023-03-20T09:20:52;11.50;56.80
4840;DHT22;2434;48.486;7.964;2023-03-20T09:23:22;11.50;57.10
4840;DHT22;2434;48.486;7.964;2023-03-20T09:25:50;11.50;58.10
4840;DHT22;2434;48.486;7.964;2023-03-20T09:28:18;11.70;58.00
4840;DHT22;2434;48.486;7.964;2023-03-20T09:30:46;11.80;56.20
4840;DHT22;2434;48.486;7.964;2023-03-20T09:33:16;11.80;55.90
4840;DHT22;2434;48.486;7.964;2023-03-20T09:35:45;11.80;55.60
4840;DHT22;2434;48.486;7.964;2023-03-20T09:38:13;11.90;56.70
4840;DHT22;2434;48.486;7.964;2023-03-20T09:40:50;11.70;55.50
4840;DHT22;2434;48.486;7.964;2023-03-20T09:43:27;11.80;55.70
4840;DHT22;2434;48.486;7.964;2023-03-20T09:46:09;12.00;56.20
4840;DHT22;2434;48.486;7.964;2023-03-20T09:48:48;12.10;53.00
4840;DHT22;2434;48.486;7.964;2023-03-20T09:51:25;12.00;53.00
4840;DHT22;2434;48.486;7.964;2023-03-20T09:53:56;12.10;54.10
4840;DHT22;2434;48.486;7.964;2023-03-20T09:56:28;12.10;54.10
4840;DHT22;2434;48.486;7.964;2023-03-20T09:59:00;12.20;55.60
4840;DHT22;2434;48.486;7.964;2023-03-20T10:01:31;12.30;51.20
4840;DHT22;2434;48.486;7.964;2023-03-20T10:04:06;12.50;51.50
4840;DHT22;2434;48.486;7.964;2023-03-20T10:06:35;12.60;51.60
4840;DHT22;2434;48.486;7.964;2023-03-20T10:09:11;12.60;48.80
4840;DHT22;2434;48.486;7.964;2023-03-20T10:12:02;12.50;49.60
4840;DHT22;2434;48.486;7.964;2023-03-20T10:14:46;12.70;49.30
4840;DHT22;2434;48.486;7.964;2023-03-20T10:17:27;12.40;51.10
4840;DHT22;2434;48.486;7.964;2023-03-20T10:20:09;12.50;52.30
4840;DHT22;2434;48.486;7.964;2023-03-20T10:22:41;12.60;50.70
4840;DHT22;2434;48.486;7.964;2023-03-20T10:25:28;12.60;47.20
4840;DHT22;2434;48.486;7.964;2023-03-20T10:27:59;12.70;47.10
4840;DHT22;2434;48.486;7.964;2023-03-20T10:30:41;12.70;45.80
4840;DHT22;2434;48.486;7.964;2023-03-20T10:33:22;12.70;47.10
4840;DHT22;2434;48.486;7.964;2023-03-20T10:36:08;12.60;46.50
4840;DHT22;2434;48.486;7.964;2023-03-20T10:38:41;12.50;48.30
4840;DHT22;2434;48.486;7.964;2023-03-20T10:41:14;12.60;48.90
4840;DHT22;2434;48.486;7.964;2023-03-20T10:43:46;12.70;48.60
4840;DHT22;2434;48.486;7.964;2023-03-20T10:46:18;12.70;48.20
4840;DHT22;2434;48.486;7.964;2023-03-20T10:48:49;12.80;47.10
4840;DHT22;2434;48.486;7.964;2023-03-20T10:51:23;12.90;47.30
4840;DHT22;2434;48.486;7.964;2023-03-20T10:53:55;13.10;45.40
4840;DHT22;2434;48.486;7.964;2023-03-20T10:56:29;13.10;45.30
4840;DHT22;2434;48.486;7.964;2023-03-20T10:59:02;13.10;44.70
4840;DHT22;2434;48.486;7.964;2023-03-20T11:01:31;13.10;45.10
4840;DHT22;2434;48.486;7.964;2023-03-20T11:04:01;13.10;44.50
4840;DHT22;2434;48.486;7.964;2023-03-20T11:06:33;13.10;42.90
4840;DHT22;2434;48.486;7.964;2023-03-20T11:09:11;12.90;42.30
4840;DHT22;2434;48.486;7.964;2023-03-20T11:11:45;13.00;43.50
4840;DHT22;2434;48.486;7.964;2023-03-20T11:14:16;12.80;42.80
4840;DHT22;2434;48.486;7.964;2023-03-20T11:16:47;12.70;45.50
4840;DHT22;2434;48.486;7.964;2023-03-20T11:19:18;12.60;45.10
4840;DHT22;2434;48.486;7.964;2023-03-20T11:21:50;12.60;46.20
4840;DHT22;2434;48.486;7.964;2023-03-20T11:24:24;12.70;46.30
4840;DHT22;2434;48.486;7.964;2023-03-20T11:27:04;12.60;47.90
4840;DHT22;2434;48.486;7.964;2023-03-20T11:29:33;12.30;51.10
4840;DHT22;2434;48.486;7.964;2023-03-20T11:32:07;12.20;52.20
4840;DHT22;2434;48.486;7.964;2023-03-20T11:34:42;12.10;50.70
4840;DHT22;2434;48.486;7.964;2023-03-20T11:37:22;12.10;52.40
4840;DHT22;2434;48.486;7.964;2023-03-20T11:39:59;12.10;52.60
4840;DHT22;2434;48.486;7.964;2023-03-20T11:42:28;12.10;52.10
4840;DHT22;2434;48.486;7.964;2023-03-20T11:44:59;12.10;50.40
4840;DHT22;2434;48.486;7.964;2023-03-20T11:47:31;12.10;50.10
4840;DHT22;2434;48.486;7.964;2023-03-20T11:50:02;12.20;51.40
4840;DHT22;2434;48.486;7.964;2023-03-20T11:52:34;12.30;49.90
4840;DHT22;2434;48.486;7.964;2023-03-20T11:55:04;12.30;49.20
4840;DHT22;2434;48.486;7.964;2023-03-20T11:57:35;12.50;50.10
4840;DHT22;2434;48.486;7.964;2023-03-20T12:00:06;12.60;49.30
4840;DHT22;2434;48.486;7.964;2023-03-20T12:02:44;12.70;46.10
4840;DHT22;2434;48.486;7.964;2023-03-20T12:05:27;12.70;44.80
4840;DHT22;2434;48.486;7.964;2023-03-20T12:08:00;12.80;43.20
4840;DHT22;2434;48.486;7.964;2023-03-20T12:10:31;12.90;44.50
4840;DHT22;2434;48.486;7.964;2023-03-20T12:13:08;12.90;43.50
4840;DHT22;2434;48.486;7.964;2023-03-20T12:15:41;12.90;42.70
4840;DHT22;2434;48.486;7.964;2023-03-20T12:18:13;13.00;44.10
4840;DHT22;2434;48.486;7.964;2023-03-20T12:20:48;12.80;47.30
4840;DHT22;2434;48.486;7.964;2023-03-20T12:23:28;12.70;48.20
4840;DHT22;2434;48.486;7.964;2023-03-20T12:26:01;12.80;48.80
4840;DHT22;2434;48.486;7.964;2023-03-20T12:28:35;12.60;47.30
4840;DHT22;2434;48.486;7.964;2023-03-20T12:31:12;12.70;49.00
4840;DHT22;2434;48.486;7.964;2023-03-20T12:33:48;12.70;47.40
4840;DHT22;2434;48.486;7.964;2023-03-20T12:36:24;12.70;46.40
4840;DHT22;2434;48.486;7.964;2023-03-20T12:38:56;12.70;47.80
4840;DHT22;2434;48.486;7.964;2023-03-20T12:41:28;12.80;46.50
4840;DHT22;2434;48.486;7.964;2023-03-20T12:47:00;13.10;46.00
4840;DHT22;2434;48.486;7.964;2023-03-20T12:49:40;13.20;45.10
4840;DHT22;2434;48.486;7.964;2023-03-20T12:52:17;13.20;44.50
4840;DHT22;2434;48.486;7.964;2023-03-20T12:55:02;13.40;44.20
4840;DHT22;2434;48.486;7.964;2023-03-20T12:57:36;13.60;43.50
4840;DHT22;2434;48.486;7.964;2023-03-20T13:00:17;13.60;43.50
4840;DHT22;2434;48.486;7.964;2023-03-20T13:03:00;13.70;42.70
4840;DHT22;2434;48.486;7.964;2023-03-20T13:05:39;13.70;41.90
4840;DHT22;2434;48.486;7.964;2023-03-20T13:11:24;13.80;41.70
4840;DHT22;2434;48.486;7.964;2023-03-20T13:14:00;13.70;41.30
4840;DHT22;2434;48.486;7.964;2023-03-20T13:16:41;13.70;41.60
4840;DHT22;2434;48.486;7.964;2023-03-20T13:19:16;13.70;41.60
4840;DHT22;2434;48.486;7.964;2023-03-20T13:21:52;13.70;39.20
4840;DHT22;2434;48.486;7.964;2023-03-20T13:24:32;13.70;39.10
4840;DHT22;2434;48.486;7.964;2023-03-20T13:27:10;13.60;39.80
4840;DHT22;2434;48.486;7.964;2023-03-20T13:29:49;13.60;39.90
4840;DHT22;2434;48.486;7.964;2023-03-20T13:32:26;13.60;39.30
4840;DHT22;2434;48.486;7.964;2023-03-20T13:35:16;13.70;40.00
4840;DHT22;2434;48.486;7.964;2023-03-20T13:37:51;13.60;38.90
4840;DHT22;2434;48.486;7.964;2023-03-20T13:40:24;13.60;39.90
4840;DHT22;2434;48.486;7.964;2023-03-20T13:42:58;13.60;41.10
4840;DHT22;2434;48.486;7.964;2023-03-20T13:45:32;13.60;39.60
4840;DHT22;2434;48.486;7.964;2023-03-20T13:48:09;13.60;40.70
4840;DHT22;2434;48.486;7.964;2023-03-20T13:50:48;13.60;39.70
4840;DHT22;2434;48.486;7.964;2023-03-20T13:53:24;13.60;40.20
4840;DHT22;2434;48.486;7.964;2023-03-20T13:55:59;13.60;40.70
4840;DHT22;2434;48.486;7.964;2023-03-20T13:58:44;13.50;39.70
4840;DHT22;2434;48.486;7.964;2023-03-20T14:01:19;13.50;39.10
4840;DHT22;2434;48.486;7.964;2023-03-20T14:03:50;13.40;38.60
4840;DHT22;2434;48.486;7.964;2023-03-20T14:06:43;13.50;40.30
4840;DHT22;2434;48.486;7.964;2023-03-20T14:09:30;13.50;39.00
4840;DHT22;2434;48.486;7.964;2023-03-20T14:12:01;13.50;39.40
4840;DHT22;2434;48.486;7.964;2023-03-20T14:14:39;13.60;39.40
4840;DHT22;2434;48.486;7.964;2023-03-20T14:17:14;13.60;39.10
4840;DHT22;2434;48.486;7.964;2023-03-20T14:19:44;13.70;38.60
4840;DHT22;2434;48.486;7.964;2023-03-20T14:22:17;13.70;38.70
4840;DHT22;2434;48.486;7.964;2023-03-20T14:24:54;13.60;38.80
4840;DHT22;2434;48.486;7.964;2023-03-20T14:27:25;13.60;37.30
4840;DHT22;2434;48.486;7.964;2023-03-20T14:30:42;13.60;38.40
4840;DHT22;2434;48.486;7.964;2023-03-20T14:33:26;13.70;39.10
4840;DHT22;2434;48.486;7.964;2023-03-20T14:36:18;13.70;39.10
4840;DHT22;2434;48.486;7.964;2023-03-20T14:39:14;13.70;38.50
4840;DHT22;2434;48.486;7.964;2023-03-20T14:41:59;13.60;39.30
4840;DHT22;2434;48.486;7.964;2023-03-20T14:44:43;13.60;38.90
4840;DHT22;2434;48.486;7.964;2023-03-20T14:47:23;13.50;39.80
4840;DHT22;2434;48.486;7.964;2023-03-20T14:49:56;13.50;39.90
4840;DHT22;2434;48.486;7.964;2023-03-20T14:52:33;13.40;39.60
4840;DHT22;2434;48.486;7.964;2023-03-20T14:55:30;13.50;39.60
4840;DHT22;2434;48.486;7.964;2023-03-20T14:58:04;13.30;41.50
4840;DHT22;2434;48.486;7.964;2023-03-20T15:00:35;13.30;40.40
4840;DHT22;2434;48.486;7.964;2023-03-20T15:03:14;13.30;39.80
4840;DHT22;2434;48.486;7.964;2023-03-20T15:05:44;13.30;39.70
4840;DHT22;2434;48.486;7.964;2023-03-20T15:08:16;13.40;40.30
4840;DHT22;2434;48.486;7.964;2023-03-20T15:10:50;13.50;39.90
4840;DHT22;2434;48.486;7.964;2023-03-20T15:13:18;13.50;39.40
4840;DHT22;2434;48.486;7.964;2023-03-20T15:15:52;13.50;39.50
4840;DHT22;2434;48.486;7.964;2023-03-20T15:18:25;13.40;38.70
4840;DHT22;2434;48.486;7.964;2023-03-20T15:20:55;13.30;40.10
4840;DHT22;2434;48.486;7.964;2023-03-20T15:23:23;13.40;41.10
4840;DHT22;2434;48.486;7.964;2023-03-20T15:25:52;13.40;40.90
4840;DHT22;2434;48.486;7.964;2023-03-20T15:28:23;13.40;41.50
4840;DHT22;2434;48.486;7.964;2023-03-20T15:30:54;13.30;39.20
4840;DHT22;2434;48.486;7.964;2023-03-20T15:33:26;13.40;39.30
4840;DHT22;2434;48.486;7.964;2023-03-20T15:35:55;13.40;39.10
4840;DHT22;2434;48.486;7.964;2023-03-20T15:38:28;13.30;39.80
4840;DHT22;2434;48.486;7.964;2023-03-20T15:40:58;13.30;39.90
4840;DHT22;2434;48.486;7.964;2023-03-20T15:43:27;13.40;40.40
4840;DHT22;2434;48.486;7.964;2023-03-20T15:45:56;13.50;40.20
4840;DHT22;2434;48.486;7.964;2023-03-20T15:48:47;13.50;39.20
4840;DHT22;2434;48.486;7.964;2023-03-20T15:51:17;13.50;40.10
4840;DHT22;2434;48.486;7.964;2023-03-20T15:53:46;13.40;39.70
4840;DHT22;2434;48.486;7.964;2023-03-20T15:56:17;13.30;40.30
4840;DHT22;2434;48.486;7.964;2023-03-20T15:58:47;13.30;40.40
4840;DHT22;2434;48.486;7.964;2023-03-20T16:01:19;13.40;40.30
4840;DHT22;2434;48.486;7.964;2023-03-20T16:03:50;13.40;40.10
4840;DHT22;2434;48.486;7.964;2023-03-20T16:06:20;13.30;41.10
4840;DHT22;2434;48.486;7.964;2023-03-20T16:08:56;13.50;40.20
4840;DHT22;2434;48.486;7.964;2023-03-20T16:11:35;13.50;39.50
4840;DHT22;2434;48.486;7.964;2023-03-20T16:14:05;13.60;38.70
4840;DHT22;2434;48.486;7.964;2023-03-20T16:16:34;13.60;38.70
4840;DHT22;2434;48.486;7.964;2023-03-20T16:19:06;13.70;38.90
4840;DHT22;2434;48.486;7.964;2023-03-20T16:21:37;13.70;38.60
4840;DHT22;2434;48.486;7.964;2023-03-20T16:24:08;13.70;38.60
4840;DHT22;2434;48.486;7.964;2023-03-20T16:26:42;13.60;38.70
4840;DHT22;2434;48.486;7.964;2023-03-20T16:29:13;13.50;38.60
4840;DHT22;2434;48.486;7.964;2023-03-20T16:31:48;13.50;38.30
4840;DHT22;2434;48.486;7.964;2023-03-20T16:34:22;13.50;39.80
4840;DHT22;2434;48.486;7.964;2023-03-20T16:36:54;13.60;38.50
4840;DHT22;2434;48.486;7.964;2023-03-20T16:39:25;13.70;38.60
4840;DHT22;2434;48.486;7.964;2023-03-20T16:42:08;13.70;37.70
4840;DHT22;2434;48.486;7.964;2023-03-20T16:44:39;13.70;38.90
4840;DHT22;2434;48.486;7.964;2023-03-20T16:47:32;13.80;39.10
4840;DHT22;2434;48.486;7.964;2023-03-20T16:50:17;13.90;37.90
4840;DHT22;2434;48.486;7.964;2023-03-20T16:52:49;13.80;37.40
4840;DHT22;2434;48.486;7.964;2023-03-20T16:55:22;13.80;38.20
4840;DHT22;2434;48.486;7.964;2023-03-20T16:57:54;13.80;37.80
4840;DHT22;2434;48.486;7.964;2023-03-20T17:00:26;13.90;37.50
4840;DHT22;2434;48.486;7.964;2023-03-20T17:03:04;13.90;37.30
4840;DHT22;2434;48.486;7.964;2023-03-20T17:05:52;13.90;37.50